createdAt,value
2017-08-21T00:00:40.062Z,94.90
2017-08-21T00:03:07.582Z,95.00
2017-08-21T00:05:35.907Z,94.80
2017-08-21T00:08:03.430Z,94.80
2017-08-21T00:10:30.950Z,94.90
2017-08-21T00:12:59.254Z,94.60
2017-08-21T00:15:26.779Z,94.60
2017-08-21T00:17:55.086Z,95.10
2017-08-21T00:20:22.611Z,95.00
2017-08-21T00:22:50.155Z,94.80
2017-08-21T00:25:17.693Z,95.00
2017-08-21T00:27:46.013Z,95.40
2017-08-21T00:30:13.529Z,95.30
2017-08-21T00:32:41.066Z,95.50
2017-08-21T00:35:08.592Z,95.50
2017-08-21T00:37:36.113Z,95.40
2017-08-21T00:40:03.655Z,95.10
2017-08-21T00:42:31.187Z,95.30
2017-08-21T00:44:58.718Z,95.00
2017-08-21T00:47:26.998Z,95.40
2017-08-21T00:49:54.543Z,95.40
2017-08-21T00:52:22.064Z,95.20
2017-08-21T00:54:50.375Z,94.80
2017-08-21T00:57:17.973Z,94.80
2017-08-21T00:59:45.595Z,94.70
2017-08-21T01:02:13.956Z,95.30
2017-08-21T01:04:41.576Z,95.20
2017-08-21T01:07:09.157Z,95.40
2017-08-21T01:09:36.681Z,95.90
2017-08-21T01:12:04.223Z,96.10
2017-08-21T01:14:31.751Z,95.80
2017-08-21T01:16:59.286Z,95.90
2017-08-21T01:19:26.812Z,95.60
2017-08-21T01:21:55.125Z,95.00
2017-08-21T01:24:22.639Z,95.00
2017-08-21T01:26:50.182Z,95.40
2017-08-21T01:29:17.699Z,95.40
2017-08-21T01:31:45.244Z,95.50
2017-08-21T01:34:12.771Z,95.90
2017-08-21T01:36:40.305Z,95.90
2017-08-21T01:39:07.832Z,96.30
2017-08-21T01:41:35.439Z,96.20
2017-08-21T01:44:02.970Z,96.30
2017-08-21T01:46:30.503Z,96.60
2017-08-21T01:48:58.029Z,95.80
2017-08-21T01:51:25.564Z,95.80
2017-08-21T01:53:53.107Z,96.00
2017-08-21T01:56:20.626Z,96.00
2017-08-21T01:58:48.178Z,96.10
2017-08-21T02:01:15.701Z,96.20
2017-08-21T02:03:43.255Z,96.20
2017-08-21T02:06:11.539Z,96.80
2017-08-21T02:08:39.086Z,96.60
2017-08-21T02:11:07.370Z,97.00
2017-08-21T02:13:35.685Z,96.80
2017-08-21T02:16:03.208Z,96.80
2017-08-21T02:18:30.760Z,97.00
2017-08-21T02:20:58.276Z,97.10
2017-08-21T02:23:25.818Z,96.70
2017-08-21T02:25:53.339Z,96.60
2017-08-21T02:28:20.863Z,96.50
2017-08-21T02:30:48.399Z,96.30
2017-08-21T02:33:16.682Z,96.00
2017-08-21T02:35:44.219Z,95.90
2017-08-21T02:38:24.439Z,96.00
2017-08-21T02:40:51.992Z,96.00
2017-08-21T02:43:19.510Z,96.40
2017-08-21T02:45:47.049Z,96.40
2017-08-21T02:48:14.579Z,96.30
2017-08-21T02:50:42.122Z,95.50
2017-08-21T02:53:09.652Z,95.50
2017-08-21T02:55:37.202Z,95.70
2017-08-21T02:58:04.723Z,95.90
2017-08-21T03:00:32.259Z,96.10
2017-08-21T03:03:00.548Z,96.30
2017-08-21T03:05:28.086Z,96.20
2017-08-21T03:07:55.619Z,95.80
2017-08-21T03:10:23.174Z,96.10
2017-08-21T03:12:50.700Z,96.60
2017-08-21T03:15:18.225Z,96.80
2017-08-21T03:17:45.767Z,97.00
2017-08-21T03:20:14.055Z,95.20
2017-08-21T03:22:41.610Z,94.90
2017-08-21T03:25:09.889Z,95.10
2017-08-21T03:27:37.422Z,95.10
2017-08-21T03:30:04.946Z,96.00
2017-08-21T03:32:32.488Z,96.40
2017-08-21T03:35:00.011Z,96.70
2017-08-21T03:37:27.551Z,96.80
2017-08-21T03:39:55.071Z,97.10
2017-08-21T03:42:22.625Z,97.20
2017-08-21T03:44:50.154Z,97.00
2017-08-21T03:47:17.682Z,97.10
2017-08-21T03:49:45.220Z,96.80
2017-08-21T03:52:12.737Z,96.80
2017-08-21T03:54:40.280Z,97.00
2017-08-21T03:57:07.803Z,96.90
2017-08-21T03:59:35.341Z,96.80
2017-08-21T04:02:02.859Z,96.80
2017-08-21T04:04:30.395Z,96.90
2017-08-21T04:06:57.915Z,96.80
2017-08-21T04:09:25.446Z,97.00
2017-08-21T04:11:53.727Z,96.90
2017-08-21T04:14:21.270Z,96.90
2017-08-21T04:16:48.789Z,97.30
2017-08-21T04:19:17.074Z,96.90
2017-08-21T04:21:44.602Z,96.90
2017-08-21T04:24:12.122Z,96.90
2017-08-21T04:26:39.666Z,96.90
2017-08-21T04:29:07.182Z,97.10
2017-08-21T04:31:34.714Z,97.00
2017-08-21T04:34:02.998Z,97.00
2017-08-21T04:36:30.537Z,97.00
2017-08-21T04:38:58.058Z,96.70
2017-08-21T04:41:25.593Z,96.50
2017-08-21T04:43:53.116Z,96.60
2017-08-21T04:46:20.654Z,96.80
2017-08-21T04:48:48.170Z,96.70
2017-08-21T04:51:15.714Z,96.40
2017-08-21T04:53:43.235Z,95.40
2017-08-21T04:56:11.521Z,93.80
2017-08-21T04:58:39.089Z,93.80
2017-08-21T05:01:06.607Z,93.00
2017-08-21T05:03:34.905Z,90.60
2017-08-21T05:06:02.427Z,90.60
2017-08-21T05:08:29.962Z,89.90
2017-08-21T05:10:57.480Z,90.30
2017-08-21T05:13:25.018Z,90.50
2017-08-21T05:15:52.538Z,91.10
2017-08-21T05:18:20.073Z,91.70
2017-08-21T05:20:47.603Z,92.10
2017-08-21T05:23:15.145Z,92.20
2017-08-21T05:25:42.666Z,92.40
2017-08-21T05:28:10.206Z,92.20
2017-08-21T05:30:37.736Z,92.10
2017-08-21T05:33:05.259Z,91.60
2017-08-21T05:35:32.798Z,90.80
2017-08-21T05:38:00.314Z,90.40
2017-08-21T05:40:28.615Z,91.00
2017-08-21T05:42:56.906Z,90.50
2017-08-21T05:45:24.449Z,90.50
2017-08-21T05:47:51.970Z,89.30
2017-08-21T05:50:19.515Z,90.00
2017-08-21T05:52:47.030Z,89.40
2017-08-21T05:55:14.567Z,88.90
2017-08-21T05:57:42.087Z,88.80
2017-08-21T06:00:09.627Z,88.40
2017-08-21T06:02:37.911Z,90.30
2017-08-21T06:05:05.458Z,90.30
2017-08-21T06:07:33.034Z,90.70
2017-08-21T06:10:00.558Z,90.30
2017-08-21T06:12:28.090Z,88.20
2017-08-21T06:14:55.604Z,86.40
2017-08-21T06:17:23.142Z,84.20
2017-08-21T06:19:50.654Z,82.50
2017-08-21T06:22:18.197Z,83.00
2017-08-21T06:24:45.714Z,84.80
2017-08-21T06:27:13.262Z,86.20
2017-08-21T06:29:41.551Z,89.40
2017-08-21T06:32:09.103Z,89.40
2017-08-21T06:34:36.622Z,90.60
2017-08-21T06:37:04.159Z,91.20
2017-08-21T06:39:31.670Z,91.50
2017-08-21T06:41:59.203Z,92.00
2017-08-21T06:44:27.505Z,92.30
2017-08-21T06:46:55.018Z,92.30
2017-08-21T06:49:23.318Z,91.70
2017-08-21T06:51:50.833Z,91.70
2017-08-21T06:54:19.141Z,90.40
2017-08-21T06:56:46.662Z,90.40
2017-08-21T06:59:14.197Z,88.80
2017-08-21T07:01:41.711Z,88.20
2017-08-21T07:04:09.247Z,87.30
2017-08-21T07:06:37.530Z,86.60
2017-08-21T07:09:05.842Z,86.80
2017-08-21T07:11:34.132Z,86.10
2017-08-21T07:14:01.650Z,86.00
2017-08-21T07:16:29.187Z,86.00
2017-08-21T07:18:56.702Z,82.90
2017-08-21T07:21:24.243Z,81.20
2017-08-21T07:23:51.768Z,79.80
2017-08-21T07:26:19.317Z,79.20
2017-08-21T07:28:46.846Z,76.10
2017-08-21T07:31:14.385Z,73.30
2017-08-21T07:33:41.901Z,68.60
2017-08-21T07:36:09.439Z,68.20
2017-08-21T07:38:36.969Z,67.90
2017-08-21T07:41:05.288Z,66.40
2017-08-21T07:43:32.806Z,65.10
2017-08-21T07:46:00.360Z,66.20
2017-08-21T07:48:27.883Z,64.10
2017-08-21T07:50:55.403Z,65.50
2017-08-21T07:53:23.701Z,61.20
2017-08-21T07:55:51.215Z,60.50
2017-08-21T07:58:19.522Z,63.30
2017-08-21T08:00:47.104Z,62.50
2017-08-21T08:03:15.415Z,58.70
2017-08-21T08:05:42.938Z,58.70
2017-08-21T08:08:10.481Z,58.90
2017-08-21T08:10:37.998Z,59.80
2017-08-21T08:13:05.534Z,62.80
2017-08-21T08:15:33.049Z,65.30
2017-08-21T08:18:00.587Z,63.70
2017-08-21T08:20:28.102Z,65.20
2017-08-21T08:22:55.633Z,66.70
2017-08-21T08:25:23.146Z,66.30
2017-08-21T08:27:50.690Z,64.70
2017-08-21T08:30:18.983Z,66.40
2017-08-21T08:32:46.505Z,66.40
2017-08-21T08:35:14.048Z,68.00
2017-08-21T08:37:42.333Z,64.30
2017-08-21T08:40:10.669Z,61.70
2017-08-21T08:42:38.183Z,61.70
2017-08-21T08:45:05.721Z,61.70
2017-08-21T08:47:33.234Z,58.90
2017-08-21T08:50:00.768Z,59.90
2017-08-21T08:52:28.286Z,60.30
2017-08-21T08:54:55.820Z,60.70
2017-08-21T08:57:23.344Z,60.50
2017-08-21T08:59:50.883Z,59.00
2017-08-21T09:02:18.442Z,61.60
2017-08-21T09:04:45.994Z,64.10
2017-08-21T09:07:13.510Z,64.40
2017-08-21T09:09:41.025Z,64.60
2017-08-21T09:12:08.554Z,62.30
2017-08-21T09:14:36.834Z,59.30
2017-08-21T09:17:04.374Z,59.30
2017-08-21T09:19:31.894Z,58.10
2017-08-21T09:22:00.199Z,55.00
2017-08-21T09:24:27.764Z,55.00
2017-08-21T09:26:55.301Z,55.30
2017-08-21T09:29:23.583Z,58.20
2017-08-21T09:31:51.914Z,56.20
2017-08-21T09:34:19.438Z,56.30
2017-08-21T09:36:46.974Z,57.10
2017-08-21T09:39:14.494Z,57.30
2017-08-21T09:41:42.042Z,56.80
2017-08-21T09:44:09.607Z,57.90
2017-08-21T09:46:37.126Z,61.00
2017-08-21T09:49:04.662Z,61.40
2017-08-21T09:51:32.946Z,58.10
2017-08-21T09:54:01.246Z,54.80
2017-08-21T09:56:28.837Z,54.70
2017-08-21T09:58:56.469Z,53.20
2017-08-21T10:01:23.990Z,51.90
2017-08-21T10:03:51.531Z,50.20
2017-08-21T10:06:19.047Z,51.40
2017-08-21T10:08:47.346Z,52.20
2017-08-21T10:11:14.875Z,52.00
2017-08-21T10:13:42.406Z,52.70
2017-08-21T10:16:47.045Z,54.40
2017-08-21T10:19:14.580Z,53.90
2017-08-21T10:21:42.099Z,53.30
2017-08-21T10:24:09.650Z,53.60
2017-08-21T10:26:37.169Z,54.00
2017-08-21T10:29:04.703Z,54.10
2017-08-21T10:31:32.242Z,53.50
2017-08-21T10:33:59.757Z,53.00
2017-08-21T10:36:27.293Z,51.10
2017-08-21T10:38:54.809Z,50.40
2017-08-21T10:41:22.394Z,46.30
2017-08-21T10:43:49.916Z,46.10
2017-08-21T10:46:17.452Z,46.20
2017-08-21T10:48:44.973Z,46.20
2017-08-21T10:51:12.510Z,44.40
2017-08-21T10:53:40.031Z,45.90
2017-08-21T10:56:07.566Z,45.10
2017-08-21T10:58:35.095Z,44.90
2017-08-21T11:01:02.631Z,44.80
2017-08-21T11:03:30.154Z,46.10
2017-08-21T11:05:57.702Z,47.60
2017-08-21T11:08:25.223Z,46.50
2017-08-21T11:10:52.745Z,43.40
2017-08-21T11:13:20.281Z,45.90
2017-08-21T11:15:47.799Z,42.90
2017-08-21T11:18:15.330Z,41.30
2017-08-21T11:20:42.850Z,42.60
2017-08-21T11:23:10.386Z,44.70
2017-08-21T11:25:37.901Z,46.70
2017-08-21T11:28:05.443Z,49.10
2017-08-21T11:30:32.970Z,50.20
2017-08-21T11:33:00.514Z,50.10
2017-08-21T11:35:28.030Z,49.80
2017-08-21T11:37:55.576Z,52.20
2017-08-21T11:40:23.106Z,51.60
2017-08-21T11:42:50.641Z,51.80
2017-08-21T11:45:18.158Z,48.10
2017-08-21T11:47:45.704Z,46.60
2017-08-21T11:50:13.225Z,48.70
2017-08-21T11:52:40.754Z,44.50
2017-08-21T11:55:08.295Z,44.40
2017-08-21T11:57:35.810Z,44.50
2017-08-21T12:00:03.350Z,43.40
2017-08-21T12:02:30.862Z,44.70
2017-08-21T12:04:58.399Z,42.30
2017-08-21T12:07:26.481Z,43.00
2017-08-21T12:09:54.026Z,42.20
2017-08-21T12:12:21.606Z,40.20
2017-08-21T12:14:49.151Z,41.00
2017-08-21T12:17:16.667Z,40.40
2017-08-21T12:19:44.218Z,40.10
2017-08-21T12:22:11.734Z,38.80
2017-08-21T12:24:39.258Z,39.80
2017-08-21T12:27:06.791Z,38.60
2017-08-21T12:29:34.315Z,38.90
2017-08-21T12:32:01.849Z,40.80
2017-08-21T12:34:29.371Z,40.10
2017-08-21T12:36:56.923Z,40.90
2017-08-21T12:39:24.457Z,43.00
2017-08-21T12:41:52.005Z,42.60
2017-08-21T12:44:19.536Z,41.20
2017-08-21T12:46:47.084Z,39.90
2017-08-21T12:49:14.606Z,41.80
2017-08-21T12:51:42.119Z,43.30
2017-08-21T12:54:09.656Z,43.40
2017-08-21T12:56:37.176Z,45.00
2017-08-21T12:59:04.710Z,45.10
2017-08-21T13:01:32.234Z,42.80
2017-08-21T13:03:59.779Z,43.60
2017-08-21T13:06:27.306Z,42.00
2017-08-21T13:08:54.848Z,42.80
2017-08-21T13:11:22.370Z,43.50
2017-08-21T13:13:49.906Z,40.00
2017-08-21T13:16:17.430Z,40.60
2017-08-21T13:18:44.991Z,39.60
2017-08-21T13:21:12.510Z,39.70
2017-08-21T13:23:40.029Z,42.60
2017-08-21T13:26:07.567Z,43.20
2017-08-21T13:28:35.094Z,43.50
2017-08-21T13:31:02.636Z,42.70
2017-08-21T13:33:30.167Z,41.50
2017-08-21T13:35:57.703Z,42.50
2017-08-21T13:38:25.218Z,42.00
2017-08-21T13:40:52.759Z,43.20
2017-08-21T13:43:20.278Z,43.60
2017-08-21T13:45:47.821Z,45.30
2017-08-21T13:48:15.345Z,45.00
2017-08-21T13:50:42.872Z,44.50
2017-08-21T13:53:10.417Z,43.20
2017-08-21T13:55:37.938Z,44.30
2017-08-21T13:58:05.470Z,44.30
2017-08-21T14:00:32.987Z,41.20
2017-08-21T14:03:00.526Z,42.60
2017-08-21T14:05:28.053Z,42.80
2017-08-21T14:07:55.591Z,42.30
2017-08-21T14:10:23.117Z,44.10
2017-08-21T14:12:50.662Z,42.50
2017-08-21T14:15:18.186Z,43.60
2017-08-21T14:17:45.729Z,42.00
2017-08-21T14:20:13.247Z,42.60
2017-08-21T14:22:40.794Z,42.80
2017-08-21T14:25:08.315Z,44.50
2017-08-21T14:27:35.878Z,45.40
2017-08-21T14:30:03.392Z,45.10
2017-08-21T14:32:30.912Z,45.10
2017-08-21T14:34:58.446Z,45.90
2017-08-21T14:37:25.973Z,44.10
2017-08-21T14:39:53.510Z,44.80
2017-08-21T14:42:21.034Z,44.80
2017-08-21T14:44:48.571Z,44.90
2017-08-21T14:47:16.095Z,44.10
2017-08-21T14:49:43.636Z,43.20
2017-08-21T14:52:11.167Z,43.50
2017-08-21T14:54:38.705Z,44.50
2017-08-21T14:57:06.222Z,43.70
2017-08-21T14:59:33.762Z,42.40
2017-08-21T15:02:01.281Z,43.00
2017-08-21T15:04:28.827Z,42.20
2017-08-21T15:06:56.343Z,42.20
2017-08-21T15:09:23.896Z,42.20
2017-08-21T15:11:51.406Z,40.40
2017-08-21T15:14:18.922Z,42.20
2017-08-21T15:16:46.462Z,42.00
2017-08-21T15:19:13.985Z,42.90
2017-08-21T15:21:41.522Z,42.60
2017-08-21T15:24:09.038Z,42.70
2017-08-21T15:26:36.574Z,43.00
2017-08-21T15:29:04.089Z,44.00
2017-08-21T15:31:31.629Z,44.00
2017-08-21T15:33:59.145Z,43.30
2017-08-21T15:36:26.696Z,43.90
2017-08-21T15:38:54.215Z,45.00
2017-08-21T15:41:21.767Z,45.30
2017-08-21T15:43:49.281Z,45.10
2017-08-21T15:46:16.802Z,44.20
2017-08-21T15:48:44.342Z,45.00
2017-08-21T15:51:11.858Z,47.00
2017-08-21T15:53:39.407Z,46.90
2017-08-21T15:56:06.923Z,48.30
2017-08-21T15:58:34.458Z,48.00
2017-08-21T16:01:01.975Z,49.00
2017-08-21T16:03:29.510Z,48.10
2017-08-21T16:05:57.029Z,47.20
2017-08-21T16:08:24.566Z,47.50
2017-08-21T16:10:52.090Z,48.50
2017-08-21T16:13:19.627Z,49.30
2017-08-21T16:15:47.156Z,48.60
2017-08-21T16:18:14.698Z,49.60
2017-08-21T16:20:42.217Z,50.40
2017-08-21T16:23:09.762Z,51.20
2017-08-21T16:25:37.294Z,48.70
2017-08-21T16:28:04.810Z,48.70
2017-08-21T16:30:32.350Z,48.70
2017-08-21T16:32:59.880Z,48.80
2017-08-21T16:35:27.417Z,49.60
2017-08-21T16:37:54.933Z,50.70
2017-08-21T16:40:22.466Z,50.00
2017-08-21T16:42:49.987Z,50.90
2017-08-21T16:45:17.526Z,50.00
2017-08-21T16:47:45.046Z,50.80
2017-08-21T16:50:12.582Z,49.90
2017-08-21T16:52:40.106Z,50.70
2017-08-21T16:55:07.648Z,50.80
2017-08-21T16:57:35.170Z,51.30
2017-08-21T17:00:02.734Z,51.60
2017-08-21T17:02:30.255Z,52.20
2017-08-21T17:04:57.776Z,52.10
2017-08-21T17:07:25.317Z,53.30
2017-08-21T17:09:52.840Z,52.70
2017-08-21T17:12:20.382Z,53.40
2017-08-21T17:14:47.902Z,53.00
2017-08-21T17:17:15.438Z,53.40
2017-08-21T17:19:42.959Z,53.50
2017-08-21T17:22:10.494Z,53.70
2017-08-21T17:24:38.006Z,55.60
2017-08-21T17:27:05.538Z,58.00
2017-08-21T17:29:33.049Z,62.10
2017-08-21T17:32:00.592Z,65.00
2017-08-21T17:34:28.110Z,67.20
2017-08-21T17:36:55.634Z,69.40
2017-08-21T17:39:23.174Z,70.50
2017-08-21T17:41:50.698Z,72.40
2017-08-21T17:44:18.239Z,73.70
2017-08-21T17:46:45.758Z,74.20
2017-08-21T17:49:13.302Z,75.20
2017-08-21T17:51:40.818Z,75.80
2017-08-21T17:54:08.363Z,76.60
2017-08-21T17:56:35.890Z,77.30
2017-08-21T17:59:03.433Z,78.00
2017-08-21T18:01:30.946Z,78.20
2017-08-21T18:03:58.490Z,78.50
2017-08-21T18:06:26.020Z,79.40
2017-08-21T18:08:53.566Z,80.00
2017-08-21T18:11:21.095Z,80.60
2017-08-21T18:13:49.382Z,81.30
2017-08-21T18:16:16.919Z,81.30
2017-08-21T18:18:44.438Z,81.20
2017-08-21T18:21:12.199Z,80.50
2017-08-21T18:23:41.846Z,80.70
2017-08-21T18:26:11.232Z,81.50
2017-08-21T18:28:39.817Z,82.00
2017-08-21T18:31:09.187Z,82.60
2017-08-21T18:33:37.562Z,83.80
2017-08-21T18:36:05.571Z,84.50
2017-08-21T18:38:33.170Z,84.40
2017-08-21T18:41:00.710Z,84.60
2017-08-21T18:43:28.225Z,84.20
2017-08-21T18:45:55.762Z,83.40
2017-08-21T18:48:23.283Z,84.40
2017-08-21T18:50:50.826Z,85.40
2017-08-21T18:53:18.343Z,85.70
2017-08-21T18:55:45.868Z,86.20
2017-08-21T18:58:13.402Z,86.70
2017-08-21T19:00:40.927Z,86.80
2017-08-21T19:03:08.470Z,86.30
2017-08-21T19:05:35.995Z,86.10
2017-08-21T19:08:03.530Z,86.10
2017-08-21T19:10:31.054Z,86.70
2017-08-21T19:12:58.598Z,87.20
2017-08-21T19:15:30.542Z,87.30
2017-08-21T19:17:58.086Z,87.90
2017-08-21T19:20:25.610Z,88.50
2017-08-21T19:22:53.152Z,88.60
2017-08-21T19:25:20.679Z,87.90
2017-08-21T19:27:48.223Z,88.20
2017-08-21T19:30:15.744Z,89.20
2017-08-21T19:32:43.290Z,89.20
2017-08-21T19:35:10.807Z,90.30
2017-08-21T19:37:38.346Z,90.30
2017-08-21T19:40:05.893Z,90.10
2017-08-21T19:42:33.415Z,90.10
2017-08-21T19:45:00.960Z,90.80
2017-08-21T19:47:28.478Z,90.40
2017-08-21T19:49:56.019Z,90.20
2017-08-21T19:52:23.537Z,90.20
2017-08-21T19:54:51.078Z,90.40
2017-08-21T19:57:18.592Z,90.70
2017-08-21T19:59:46.135Z,90.90
2017-08-21T20:02:13.650Z,91.20
2017-08-21T20:04:41.188Z,91.10
2017-08-21T20:07:08.710Z,91.00
2017-08-21T20:09:36.243Z,91.20
2017-08-21T20:12:03.762Z,91.40
2017-08-21T20:14:31.303Z,91.60
2017-08-21T20:16:58.883Z,92.00
2017-08-21T20:19:26.625Z,92.20
2017-08-21T20:21:54.175Z,92.10
2017-08-21T20:24:21.694Z,92.00
2017-08-21T20:26:49.235Z,91.80
2017-08-21T20:29:16.760Z,91.80
2017-08-21T20:31:44.298Z,91.50
2017-08-21T20:34:11.818Z,91.00
2017-08-21T20:36:39.367Z,91.30
2017-08-21T20:39:06.907Z,91.30
2017-08-21T20:41:37.501Z,91.80
2017-08-21T20:44:05.475Z,92.30
2017-08-21T20:46:33.585Z,92.30
2017-08-21T20:49:02.416Z,92.70
2017-08-21T20:51:30.382Z,93.00
2017-08-21T20:53:57.928Z,92.50
2017-08-21T20:56:25.461Z,92.40
2017-08-21T20:58:52.981Z,92.30
2017-08-21T21:01:20.514Z,92.20
2017-08-21T21:03:48.031Z,92.20
2017-08-21T21:06:15.592Z,91.90
2017-08-21T21:08:43.106Z,92.00
2017-08-21T21:11:10.627Z,91.70
2017-08-21T21:13:38.163Z,91.60
2017-08-21T21:16:05.679Z,91.60
2017-08-21T21:18:33.219Z,91.80
2017-08-21T21:21:00.734Z,92.00
2017-08-21T21:23:28.271Z,92.40
2017-08-21T21:25:55.791Z,92.50
2017-08-21T21:28:23.326Z,92.80
2017-08-21T21:30:50.842Z,93.10
2017-08-21T21:33:18.400Z,93.30
2017-08-21T21:35:45.917Z,93.10
2017-08-21T21:38:13.463Z,92.80
2017-08-21T21:40:40.977Z,93.00
2017-08-21T21:43:08.514Z,92.70
2017-08-21T21:45:36.038Z,92.50
2017-08-21T21:48:03.598Z,92.40
2017-08-21T21:50:31.118Z,92.90
2017-08-21T21:52:58.640Z,93.10
2017-08-21T21:55:26.179Z,93.80
2017-08-21T21:57:53.700Z,94.00
2017-08-21T22:00:21.234Z,93.90
2017-08-21T22:02:48.745Z,94.10
2017-08-21T22:05:16.274Z,93.90
2017-08-21T22:07:43.791Z,93.40
2017-08-21T22:10:11.330Z,92.80
2017-08-21T22:12:38.849Z,92.70
2017-08-21T22:15:06.392Z,93.00
2017-08-21T22:17:33.918Z,93.50
2017-08-21T22:20:01.454Z,94.00
2017-08-21T22:22:29.027Z,93.60
2017-08-21T22:24:56.562Z,92.10
2017-08-21T22:27:24.078Z,91.70
2017-08-21T22:29:51.626Z,91.80
2017-08-21T22:32:19.201Z,92.80
2017-08-21T22:34:46.718Z,93.00
2017-08-21T22:37:14.252Z,93.10
2017-08-21T22:39:41.762Z,93.40
2017-08-21T22:42:09.301Z,93.70
2017-08-21T22:44:36.814Z,93.90
2017-08-21T22:47:04.347Z,93.50
2017-08-21T22:49:31.869Z,93.90
2017-08-21T22:51:59.407Z,93.90
2017-08-21T22:54:26.928Z,93.90
2017-08-21T22:56:54.469Z,94.10
2017-08-21T22:59:21.987Z,93.00
2017-08-21T23:02:01.185Z,93.40
2017-08-21T23:04:28.705Z,93.50
2017-08-21T23:06:56.243Z,93.20
2017-08-21T23:09:23.764Z,93.10
2017-08-21T23:11:51.306Z,93.20
2017-08-21T23:14:18.851Z,92.90
2017-08-21T23:16:46.374Z,92.60
2017-08-21T23:19:13.910Z,92.50
2017-08-21T23:21:41.427Z,93.20
2017-08-21T23:24:08.970Z,93.90
2017-08-21T23:26:36.494Z,94.10
2017-08-21T23:29:04.035Z,95.20
2017-08-21T23:31:31.560Z,95.50
2017-08-21T23:33:59.095Z,95.30
2017-08-21T23:36:26.618Z,95.00
2017-08-21T23:38:54.159Z,94.80
2017-08-21T23:41:21.678Z,94.60
2017-08-21T23:43:49.219Z,94.50
2017-08-21T23:46:16.746Z,94.60
2017-08-21T23:48:44.274Z,95.10
2017-08-21T23:51:11.810Z,95.40
2017-08-21T23:53:39.330Z,95.50
2017-08-21T23:56:06.874Z,95.90
2017-08-21T23:58:34.394Z,95.20
